Terminal Aerodrome Forecast
Issued by NWS

Home | Current Version | Previous Version | Text Only | Print | Product List | Glossary On
Versions: 1 2 3 4 5 6 7 8 9 10 11 12 13 14 15 16 17 18 19 20
625
FTUS41 KPBZ 191140
TAFZZV
TAF
KZZV 191140Z 1912/2012 17009KT 6SM -RA OVC015 WS020/20050KT
     FM192000 19010KT P6SM BKN050 WS020/22040KT
     FM200200 19008KT P6SM BKN250 WS020/22040KT=

USA.gov is the U.S. government's official web portal to all federal, state and local government web resources and services.